Time;durP1;ratioP1;P1;durP2;ratioP2;P2;SDS_P1;SDS_P2;PMS_P1;PMS_P2;Temp;Humidity;BMP_temperature;BMP_pressure;BME280_temperature;BME280_humidity;BME280_pressure;Samples;Min_cycle;Max_cycle;Signal;HPM_P1;HPM_P2
2023/01/24 00:00:42;;;;;;;407.33;386.50;;;5.00;99.90;;;;;;5029598;28;20510;-60
2023/01/24 00:03:12;;;;;;;371.08;352.08;;;5.00;99.90;;;;;;5029164;28;20498;-60
2023/01/24 00:05:42;;;;;;;400.03;379.30;;;5.00;99.90;;;;;;5031337;28;20397;-60
2023/01/24 00:08:10;;;;;;;383.15;363.45;;;5.00;99.90;;;;;;5031879;28;20386;-60
2023/01/24 00:10:36;;;;;;;412.88;391.30;;;5.00;99.90;;;;;;5032326;28;20607;-61
2023/01/24 00:13:01;;;;;;;405.27;384.37;;;5.00;99.90;;;;;;5030552;28;20394;-60
2023/01/24 00:15:27;;;;;;;400.45;379.73;;;5.10;99.90;;;;;;5030446;28;20466;-58
2023/01/24 00:17:53;;;;;;;391.35;371.08;;;5.10;99.90;;;;;;5031052;28;20383;-59
2023/01/24 00:20:18;;;;;;;396.95;376.42;;;5.10;99.90;;;;;;5031756;28;20410;-60
2023/01/24 00:22:44;;;;;;;380.57;361.10;;;5.10;99.90;;;;;;5033131;28;20387;-60
2023/01/24 00:25:09;;;;;;;375.63;356.50;;;5.10;99.90;;;;;;5030240;28;20390;-60
2023/01/24 00:27:35;;;;;;;377.07;357.37;;;5.10;99.90;;;;;;5031191;28;20597;-59
2023/01/24 00:30:02;;;;;;;369.10;350.00;;;5.10;99.90;;;;;;5030644;28;20394;-60
2023/01/24 00:32:27;;;;;;;374.08;354.90;;;5.00;99.90;;;;;;5014023;28;20398;-61
2023/01/24 00:34:53;;;;;;;368.77;349.77;;;5.00;99.90;;;;;;5028410;28;20478;-60
2023/01/24 00:37:18;;;;;;;382.70;363.10;;;5.00;99.90;;;;;;5028977;28;20383;-60
2023/01/24 00:39:44;;;;;;;380.60;360.85;;;5.00;99.90;;;;;;5026673;28;20538;-60
2023/01/24 00:42:10;;;;;;;380.02;360.73;;;5.00;99.90;;;;;;5026954;28;20406;-60
2023/01/24 00:44:35;;;;;;;364.87;345.80;;;5.00;99.90;;;;;;5025479;28;20485;-60
2023/01/24 00:47:01;;;;;;;375.60;356.17;;;5.00;99.90;;;;;;5027659;28;20430;-60
2023/01/24 00:49:26;;;;;;;365.20;346.30;;;5.00;99.90;;;;;;5027813;28;20437;-60
2023/01/24 00:51:52;;;;;;;370.52;351.48;;;5.00;99.90;;;;;;5025092;28;20738;-60
2023/01/24 00:54:17;;;;;;;372.80;353.33;;;5.00;99.90;;;;;;5027088;28;20791;-59
2023/01/24 00:56:43;;;;;;;393.10;372.90;;;4.90;99.90;;;;;;5026758;28;20486;-61
2023/01/24 00:59:09;;;;;;;377.00;357.55;;;4.90;99.90;;;;;;5027368;28;20398;-60
2023/01/24 01:01:34;;;;;;;372.98;353.67;;;4.90;99.90;;;;;;5030250;28;20565;-60
2023/01/24 01:04:00;;;;;;;387.60;367.30;;;5.00;99.90;;;;;;5034919;28;20387;-60
2023/01/24 01:06:25;;;;;;;379.97;360.27;;;5.00;99.90;;;;;;5035606;28;20603;-60
2023/01/24 01:08:51;;;;;;;385.98;366.05;;;5.00;99.90;;;;;;5034950;28;20373;-60
2023/01/24 01:11:17;;;;;;;388.75;368.60;;;5.00;99.90;;;;;;5035768;28;20798;-60
2023/01/24 01:13:47;;;;;;;381.30;361.47;;;5.00;99.90;;;;;;5033906;28;20479;-59
2023/01/24 01:16:18;;;;;;;369.35;349.65;;;4.90;99.90;;;;;;5033289;28;20413;-60
2023/01/24 01:18:47;;;;;;;356.85;338.35;;;4.90;99.90;;;;;;5030718;28;20397;-60
2023/01/24 01:21:15;;;;;;;363.15;344.52;;;4.90;99.90;;;;;;5032204;28;20691;-60
2023/01/24 01:23:41;;;;;;;366.80;347.60;;;4.90;99.90;;;;;;5035193;28;20445;-59
2023/01/24 01:26:09;;;;;;;369.45;350.15;;;4.90;99.90;;;;;;5033757;28;20402;-60
2023/01/24 01:28:36;;;;;;;376.13;356.65;;;4.90;99.90;;;;;;5032207;28;20442;-59
2023/01/24 01:31:02;;;;;;;376.38;356.90;;;4.90;99.90;;;;;;5030922;28;20391;-60
2023/01/24 01:33:28;;;;;;;378.33;358.77;;;4.90;99.90;;;;;;5029692;28;20408;-60
2023/01/24 01:35:53;;;;;;;370.13;351.10;;;4.90;99.90;;;;;;5029858;28;20609;-60
2023/01/24 01:38:19;;;;;;;375.67;356.20;;;4.90;99.90;;;;;;5028179;28;20434;-59
2023/01/24 01:40:45;;;;;;;369.57;349.97;;;4.90;99.90;;;;;;5029045;28;20694;-60
2023/01/24 01:43:17;;;;;;;362.90;344.07;;;4.80;99.90;;;;;;5029619;28;20864;-60
2023/01/24 01:45:48;;;;;;;368.08;349.17;;;4.80;99.90;;;;;;5030574;28;20407;-60
2023/01/24 01:48:29;;;;;;;377.65;358.20;;;4.80;99.90;;;;;;5032500;28;20390;-60
2023/01/24 01:51:16;;;;;;;386.33;366.55;;;4.80;99.90;;;;;;5034701;28;20383;-58
2023/01/24 01:53:46;;;;;;;408.13;387.10;;;4.80;99.90;;;;;;5034615;28;20387;-61
2023/01/24 01:56:25;;;;;;;392.02;371.88;;;4.90;99.90;;;;;;5033964;28;20399;-59
2023/01/24 01:58:53;;;;;;;408.27;387.23;;;4.90;99.90;;;;;;5032968;28;20558;-59
2023/01/24 02:01:18;;;;;;;387.10;366.92;;;5.00;99.90;;;;;;5033089;28;20497;-60
2023/01/24 02:03:51;;;;;;;398.87;378.03;;;5.00;99.90;;;;;;5033820;28;20470;-59
2023/01/24 02:06:54;;;;;;;395.42;374.80;;;5.00;99.90;;;;;;5033508;28;20379;-60
2023/01/24 02:09:24;;;;;;;393.23;372.90;;;5.00;99.90;;;;;;5033414;28;20395;-57
2023/01/24 02:11:53;;;;;;;396.67;376.33;;;5.00;99.90;;;;;;5032639;28;20418;-59
2023/01/24 02:17:06;;;;;;;394.13;373.70;;;4.90;99.90;;;;;;5033744;28;20413;-60
2023/01/24 02:19:41;;;;;;;397.33;376.60;;;4.90;99.90;;;;;;5033128;28;20395;-59
2023/01/24 02:22:16;;;;;;;404.77;383.77;;;4.90;99.90;;;;;;5031733;28;20395;-60
2023/01/24 02:24:51;;;;;;;397.67;376.85;;;4.80;99.90;;;;;;5032693;28;20383;-59
2023/01/24 02:27:16;;;;;;;388.35;368.17;;;4.80;99.90;;;;;;5035630;28;20672;-60
2023/01/24 02:29:42;;;;;;;428.63;406.57;;;4.80;99.90;;;;;;5036009;28;20394;-59
2023/01/24 02:32:08;;;;;;;398.13;377.17;;;4.80;99.90;;;;;;5036752;28;20402;-60
2023/01/24 02:34:34;;;;;;;406.73;385.50;;;4.80;99.90;;;;;;5035057;28;20380;-60
2023/01/24 02:37:09;;;;;;;424.30;402.42;;;4.80;99.90;;;;;;5031942;28;20402;-59
2023/01/24 02:39:51;;;;;;;415.63;394.20;;;4.80;99.90;;;;;;5033525;28;20810;-60
2023/01/24 02:42:22;;;;;;;416.23;394.73;;;4.80;99.90;;;;;;5033420;28;20399;-60
2023/01/24 02:45:08;;;;;;;423.77;401.80;;;4.80;99.90;;;;;;5034628;28;20399;-58
2023/01/24 02:47:46;;;;;;;422.17;400.07;;;4.80;99.90;;;;;;5034590;28;20486;-58
2023/01/24 02:50:12;;;;;;;426.80;404.85;;;4.80;99.90;;;;;;5035161;28;20477;-59
2023/01/24 02:55:23;;;;;;;424.88;402.85;;;4.80;99.90;;;;;;5036492;28;20726;-59
2023/01/24 02:58:07;;;;;;;425.30;403.08;;;4.80;99.90;;;;;;5036190;28;20395;-60
2023/01/24 03:00:41;;;;;;;440.10;417.10;;;4.80;99.90;;;;;;5037018;28;20414;-60
2023/01/24 03:03:08;;;;;;;429.30;407.40;;;4.80;99.90;;;;;;5035904;28;20455;-59
2023/01/24 03:05:46;;;;;;;426.42;403.70;;;4.80;99.90;;;;;;5035825;28;20391;-60
2023/01/24 03:08:12;;;;;;;432.77;410.52;;;4.80;99.90;;;;;;5036228;28;20390;-60
2023/01/24 03:10:38;;;;;;;414.70;393.13;;;4.80;99.90;;;;;;5035039;28;20744;-60
2023/01/24 03:34:56;;;;;;;438.80;415.70;;;4.80;99.90;;;;;;5035152;28;20448;-60
2023/01/24 03:40:14;;;;;;;448.85;425.70;;;4.80;99.90;;;;;;5034117;28;20467;-60
2023/01/24 03:42:47;;;;;;;439.75;416.88;;;4.80;99.90;;;;;;5032940;28;20387;-60
2023/01/24 03:45:34;;;;;;;456.35;432.60;;;4.80;99.90;;;;;;5033642;28;20494;-60
2023/01/24 03:48:02;;;;;;;472.80;447.85;;;4.90;99.90;;;;;;5034052;28;20407;-58
2023/01/24 03:53:20;;;;;;;468.27;443.60;;;4.90;99.90;;;;;;5035307;28;20386;-59
2023/01/24 03:55:46;;;;;;;478.00;452.53;;;4.90;99.90;;;;;;5035729;28;20399;-59
2023/01/24 03:58:12;;;;;;;474.20;449.08;;;4.90;99.90;;;;;;5034836;28;20401;-59
2023/01/24 04:00:39;;;;;;;469.30;444.40;;;4.90;99.90;;;;;;5032930;28;20461;-58
2023/01/24 04:03:05;;;;;;;466.50;441.88;;;4.80;99.90;;;;;;5034480;28;20395;-60
2023/01/24 04:05:33;;;;;;;497.40;470.73;;;4.80;99.90;;;;;;5035094;28;20487;-60
2023/01/24 04:07:58;;;;;;;491.90;465.80;;;4.80;99.90;;;;;;5032935;28;20486;-60
2023/01/24 04:10:24;;;;;;;502.00;475.03;;;4.90;99.90;;;;;;5031908;28;20489;-60
2023/01/24 04:12:50;;;;;;;486.80;460.85;;;4.80;99.90;;;;;;5032455;28;20397;-60
2023/01/24 04:15:24;;;;;;;485.45;459.42;;;4.90;99.90;;;;;;5034025;28;20399;-60
2023/01/24 04:17:50;;;;;;;466.65;441.92;;;4.90;99.90;;;;;;5032984;28;20395;-60
2023/01/24 04:20:16;;;;;;;471.40;446.45;;;4.80;99.90;;;;;;5031350;28;20421;-60
2023/01/24 04:22:42;;;;;;;471.05;446.23;;;4.80;99.90;;;;;;5034145;28;20433;-60
2023/01/24 04:25:08;;;;;;;455.52;431.63;;;4.80;99.90;;;;;;5036814;28;20747;-60
2023/01/24 04:27:36;;;;;;;475.37;450.07;;;4.80;99.90;;;;;;5034795;28;20753;-60
2023/01/24 04:30:02;;;;;;;455.80;431.98;;;4.80;99.90;;;;;;5035042;28;20460;-61
2023/01/24 04:32:28;;;;;;;458.08;434.27;;;4.80;99.90;;;;;;5034377;28;20383;-60
2023/01/24 04:34:54;;;;;;;455.42;431.83;;;4.80;99.90;;;;;;5036391;28;20394;-59
2023/01/24 04:37:19;;;;;;;454.45;430.75;;;4.80;99.90;;;;;;5035643;28;20457;-59
2023/01/24 04:39:45;;;;;;;432.77;411.03;;;4.80;99.90;;;;;;5034434;28;20502;-60
2023/01/24 04:42:11;;;;;;;314.27;299.27;;;4.70;99.90;;;;;;5035253;28;20606;-60
2023/01/24 04:44:36;;;;;;;268.45;255.10;;;4.60;99.90;;;;;;5033900;28;20469;-59
2023/01/24 04:47:01;;;;;;;268.88;255.43;;;4.50;99.90;;;;;;5033630;28;20485;-60
2023/01/24 04:49:27;;;;;;;283.00;268.97;;;4.40;99.90;;;;;;5033183;28;20398;-59
2023/01/24 04:51:53;;;;;;;298.87;283.70;;;4.40;99.90;;;;;;5034054;28;20657;-60
2023/01/24 04:54:19;;;;;;;317.73;301.80;;;4.50;99.90;;;;;;5037199;28;20730;-59
2023/01/24 04:56:45;;;;;;;321.25;304.98;;;4.60;99.90;;;;;;5033229;28;20485;-60
2023/01/24 04:59:11;;;;;;;332.53;315.40;;;4.60;99.90;;;;;;5032811;28;20756;-59
2023/01/24 05:01:37;;;;;;;322.58;305.75;;;4.60;99.90;;;;;;5032629;28;20414;-60
2023/01/24 05:04:03;;;;;;;328.95;312.02;;;4.70;99.90;;;;;;5034935;28;20381;-60
2023/01/24 05:06:30;;;;;;;329.43;312.63;;;4.70;99.90;;;;;;5035728;28;20476;-58
2023/01/24 05:08:56;;;;;;;321.03;304.60;;;4.70;99.90;;;;;;5036395;28;20394;-60
2023/01/24 05:11:22;;;;;;;315.33;299.47;;;4.80;99.90;;;;;;5034232;28;20390;-60
2023/01/24 05:13:48;;;;;;;313.35;297.52;;;4.80;99.90;;;;;;5032033;28;20406;-60
2023/01/24 05:16:14;;;;;;;302.20;286.92;;;4.80;99.90;;;;;;5031404;28;20403;-60
2023/01/24 05:18:39;;;;;;;308.47;293.10;;;4.80;99.90;;;;;;5031584;28;20547;-60
2023/01/24 05:21:11;;;;;;;302.70;287.55;;;4.80;99.90;;;;;;5029422;28;20403;-60
2023/01/24 05:23:37;;;;;;;294.65;280.30;;;4.80;99.90;;;;;;5030256;28;20583;-60
2023/01/24 05:26:03;;;;;;;308.55;293.15;;;4.80;99.90;;;;;;5031235;28;20389;-59
2023/01/24 05:28:29;;;;;;;311.15;295.55;;;4.80;99.90;;;;;;5032200;28;20533;-60
2023/01/24 05:31:04;;;;;;;308.70;293.23;;;4.80;99.90;;;;;;5030620;28;20429;-60
2023/01/24 05:33:29;;;;;;;317.77;301.45;;;4.80;99.90;;;;;;5030184;28;20694;-61
2023/01/24 05:36:04;;;;;;;345.45;327.85;;;4.80;99.90;;;;;;5032793;28;20823;-60
2023/01/24 05:38:30;;;;;;;358.08;339.85;;;4.80;99.90;;;;;;5035420;28;20398;-60
2023/01/24 05:40:59;;;;;;;346.20;328.33;;;4.70;99.90;;;;;;5033896;28;20502;-60
2023/01/24 05:43:25;;;;;;;347.03;329.17;;;4.70;99.90;;;;;;5031530;28;20415;-60
2023/01/24 05:45:50;;;;;;;343.70;325.73;;;4.80;99.90;;;;;;5032211;28;20755;-59
2023/01/24 05:48:16;;;;;;;356.33;337.43;;;4.80;99.90;;;;;;5030641;28;20898;-60
2023/01/24 05:50:41;;;;;;;359.85;340.50;;;4.80;99.90;;;;;;5029461;28;20375;-60
2023/01/24 05:53:07;;;;;;;350.17;331.73;;;4.80;99.90;;;;;;5027890;28;20566;-60
2023/01/24 05:55:32;;;;;;;340.63;322.60;;;4.80;99.90;;;;;;5029211;28;20497;-60
2023/01/24 05:58:00;;;;;;;353.25;333.95;;;4.80;99.90;;;;;;5030157;28;20391;-60
2023/01/24 06:00:25;;;;;;;351.80;333.00;;;4.70;99.90;;;;;;5029959;28;20629;-59
2023/01/24 06:02:51;;;;;;;338.10;319.88;;;4.70;99.90;;;;;;5029148;28;20445;-59
2023/01/24 06:05:17;;;;;;;339.27;320.75;;;4.50;99.90;;;;;;5028470;28;20671;-60
2023/01/24 06:07:42;;;;;;;351.83;332.52;;;4.50;99.90;;;;;;5028257;28;20379;-60
2023/01/24 06:10:10;;;;;;;348.30;329.20;;;4.40;99.90;;;;;;5027984;28;20434;-60
2023/01/24 06:12:35;;;;;;;338.08;319.40;;;4.50;99.90;;;;;;5027299;28;20397;-60
2023/01/24 06:15:01;;;;;;;346.35;327.50;;;4.50;99.90;;;;;;5026856;28;20415;-60
2023/01/24 06:17:26;;;;;;;342.90;324.25;;;4.50;99.90;;;;;;5026619;28;20387;-59
2023/01/24 06:19:53;;;;;;;338.80;320.30;;;4.60;99.90;;;;;;5026037;28;20554;-60
2023/01/24 06:22:35;;;;;;;337.75;319.13;;;4.70;99.90;;;;;;5027290;28;20576;-60
2023/01/24 06:25:00;;;;;;;351.85;332.52;;;4.70;99.90;;;;;;5028331;28;20470;-59
2023/01/24 06:27:26;;;;;;;360.75;340.67;;;4.70;99.90;;;;;;5028069;28;20490;-60
2023/01/24 06:29:52;;;;;;;362.20;341.80;;;4.60;99.90;;;;;;5026747;28;20401;-60
2023/01/24 06:32:46;;;;;;;355.05;335.27;;;4.60;99.90;;;;;;5024912;28;20418;-59
2023/01/24 06:35:49;;;;;;;361.77;341.42;;;4.70;99.90;;;;;;5024767;28;20387;-60
2023/01/24 06:38:23;;;;;;;358.15;338.17;;;4.70;99.90;;;;;;5024649;28;20394;-60
2023/01/24 06:40:53;;;;;;;362.65;342.42;;;4.70;99.90;;;;;;5027396;28;20470;-60
2023/01/24 06:43:19;;;;;;;359.92;339.90;;;4.70;99.90;;;;;;5026817;28;20383;-57
2023/01/24 06:45:45;;;;;;;345.90;326.58;;;4.70;99.90;;;;;;5025853;28;20411;-61
2023/01/24 06:48:10;;;;;;;359.35;339.98;;;4.70;99.90;;;;;;5026151;28;20407;-60
2023/01/24 06:50:36;;;;;;;356.90;337.20;;;4.70;99.90;;;;;;5026423;28;20391;-59
2023/01/24 06:53:01;;;;;;;355.13;335.67;;;4.70;99.90;;;;;;5023459;28;20429;-60
2023/01/24 06:55:27;;;;;;;360.95;340.42;;;4.70;99.90;;;;;;5023726;28;20395;-58
2023/01/24 06:57:57;;;;;;;359.95;340.02;;;4.70;99.90;;;;;;5023078;28;20705;-60
2023/01/24 07:00:23;;;;;;;348.35;329.08;;;4.60;99.90;;;;;;5022831;28;20811;-59
2023/01/24 07:02:57;;;;;;;362.63;342.53;;;4.60;99.90;;;;;;5021435;28;20395;-60
2023/01/24 07:05:22;;;;;;;352.48;333.10;;;4.60;99.90;;;;;;5020618;28;20407;-59
2023/01/24 07:07:48;;;;;;;338.52;320.17;;;4.60;99.90;;;;;;5022007;28;20438;-60
2023/01/24 07:10:13;;;;;;;333.27;314.97;;;4.60;99.90;;;;;;5020903;28;20423;-60
2023/01/24 07:12:42;;;;;;;314.30;297.40;;;4.60;99.90;;;;;;5019807;28;20415;-60
2023/01/24 07:15:08;;;;;;;303.13;286.75;;;4.60;99.90;;;;;;5019667;28;20437;-59
2023/01/24 07:17:33;;;;;;;301.50;285.13;;;4.60;99.90;;;;;;5019373;28;20511;-59
2023/01/24 07:19:59;;;;;;;298.35;281.80;;;4.50;99.90;;;;;;5017673;28;20474;-61
2023/01/24 07:22:25;;;;;;;303.15;286.55;;;4.40;99.90;;;;;;5015987;28;20658;-60
2023/01/24 07:24:51;;;;;;;314.85;298.02;;;4.50;99.90;;;;;;5016910;28;20394;-60
2023/01/24 07:27:17;;;;;;;300.60;284.67;;;4.50;99.90;;;;;;5015494;28;20427;-59
2023/01/24 07:29:43;;;;;;;289.13;273.48;;;4.30;99.90;;;;;;5016651;28;20394;-59
2023/01/24 07:32:09;;;;;;;313.83;297.08;;;4.30;99.90;;;;;;5017495;28;20611;-59
2023/01/24 07:34:35;;;;;;;321.20;303.60;;;4.30;99.90;;;;;;5018724;28;20379;-60
2023/01/24 07:37:01;;;;;;;337.50;319.33;;;4.30;99.90;;;;;;5018982;28;20391;-60
2023/01/24 07:39:29;;;;;;;343.17;324.10;;;4.40;99.90;;;;;;5017551;28;20687;-60
2023/01/24 07:41:55;;;;;;;337.47;318.80;;;4.40;99.90;;;;;;5015710;28;20407;-60
2023/01/24 07:44:20;;;;;;;362.87;342.93;;;4.40;99.90;;;;;;5017284;28;20723;-58
2023/01/24 07:46:46;;;;;;;342.15;323.23;;;4.50;99.90;;;;;;5015887;28;20407;-60
2023/01/24 07:49:11;;;;;;;334.65;316.38;;;4.50;99.90;;;;;;5017329;28;20426;-60
2023/01/24 07:51:37;;;;;;;335.57;317.17;;;4.50;99.90;;;;;;5018350;28;20430;-60
2023/01/24 07:54:03;;;;;;;320.77;303.27;;;4.50;99.90;;;;;;5019405;28;20386;-60
2023/01/24 07:56:28;;;;;;;307.00;290.60;;;4.40;99.90;;;;;;5019794;28;20726;-59
2023/01/24 07:58:55;;;;;;;339.38;320.70;;;4.40;99.90;;;;;;5020049;28;20667;-60
2023/01/24 08:01:22;;;;;;;317.63;300.33;;;4.40;99.90;;;;;;5017412;28;20626;-59
2023/01/24 08:03:47;;;;;;;323.10;305.70;;;4.40;99.90;;;;;;5016410;28;20390;-60
2023/01/24 08:06:13;;;;;;;308.85;292.20;;;4.50;99.90;;;;;;5017462;28;20507;-60
2023/01/24 08:08:39;;;;;;;309.38;292.73;;;4.50;99.90;;;;;;5017267;28;20537;-60
2023/01/24 08:11:04;;;;;;;301.03;284.77;;;4.50;99.90;;;;;;5016810;28;20395;-60
2023/01/24 08:13:30;;;;;;;316.87;299.47;;;4.40;99.90;;;;;;5016060;28;20434;-60
2023/01/24 08:15:55;;;;;;;332.80;314.75;;;4.50;99.90;;;;;;5015991;28;20417;-60
2023/01/24 08:18:21;;;;;;;333.03;314.53;;;4.50;99.90;;;;;;5016606;28;20600;-60
2023/01/24 08:20:46;;;;;;;299.87;283.60;;;4.60;99.90;;;;;;5016981;28;20749;-59
2023/01/24 08:23:12;;;;;;;298.13;282.03;;;4.60;99.90;;;;;;5015903;28;20738;-60
2023/01/24 08:25:37;;;;;;;303.58;287.38;;;4.60;99.90;;;;;;5013934;28;20399;-60
2023/01/24 08:28:03;;;;;;;337.00;318.53;;;4.60;99.90;;;;;;5015009;28;20946;-60
2023/01/24 08:30:29;;;;;;;315.40;298.57;;;4.60;99.90;;;;;;5013283;28;20684;-60
2023/01/24 08:33:03;;;;;;;303.73;287.30;;;4.50;99.90;;;;;;5012993;28;20570;-59
2023/01/24 08:35:29;;;;;;;300.35;284.33;;;4.50;99.90;;;;;;5010691;28;20398;-60
2023/01/24 08:37:54;;;;;;;306.45;290.08;;;4.50;99.90;;;;;;5009491;28;21020;-60
2023/01/24 08:40:20;;;;;;;307.67;291.13;;;4.60;99.90;;;;;;5011194;28;20407;-60
2023/01/24 08:42:45;;;;;;;301.90;285.73;;;4.70;99.90;;;;;;5013273;28;20489;-60
2023/01/24 08:45:11;;;;;;;296.00;280.15;;;4.70;99.90;;;;;;5012871;28;20429;-59
2023/01/24 08:47:36;;;;;;;311.53;294.83;;;4.60;99.90;;;;;;5011359;28;20680;-60
2023/01/24 08:50:02;;;;;;;306.60;290.13;;;4.60;99.90;;;;;;5015917;28;20390;-60
2023/01/24 08:52:28;;;;;;;315.55;298.75;;;4.50;99.90;;;;;;5016533;28;20387;-60
2023/01/24 08:54:53;;;;;;;310.20;293.70;;;4.60;99.90;;;;;;5016366;28;20464;-62
2023/01/24 08:57:21;;;;;;;313.47;296.63;;;4.60;99.90;;;;;;5015613;28;20546;-60
2023/01/24 08:59:46;;;;;;;310.77;294.40;;;4.60;99.90;;;;;;5017646;28;20490;-60
2023/01/24 09:02:13;;;;;;;310.10;293.80;;;4.70;99.90;;;;;;5017947;28;20733;-60
2023/01/24 09:04:39;;;;;;;305.13;289.05;;;4.70;99.90;;;;;;5018039;28;20570;-59
2023/01/24 09:07:05;;;;;;;277.90;263.40;;;4.60;99.90;;;;;;5017802;28;20398;-60
2023/01/24 09:09:30;;;;;;;282.55;267.60;;;4.60;99.90;;;;;;5022403;28;20731;-60
2023/01/24 09:11:56;;;;;;;282.67;267.88;;;4.50;99.90;;;;;;5023850;28;20399;-60
2023/01/24 09:14:22;;;;;;;300.77;284.95;;;4.50;99.90;;;;;;5024679;28;20399;-58
2023/01/24 09:16:47;;;;;;;297.80;282.13;;;4.50;99.90;;;;;;5025460;28;20518;-60
2023/01/24 09:19:13;;;;;;;289.92;274.73;;;4.50;99.90;;;;;;5025268;28;20844;-60
2023/01/24 09:21:39;;;;;;;294.97;279.30;;;4.50;99.90;;;;;;5022183;28;20505;-60
2023/01/24 09:24:05;;;;;;;309.40;291.67;;;4.50;99.90;;;;;;5020323;28;20391;-60
2023/01/24 09:26:30;;;;;;;307.07;290.37;;;4.60;99.90;;;;;;5019911;28;20607;-59
2023/01/24 09:28:56;;;;;;;292.43;276.70;;;4.60;99.90;;;;;;5017898;28;20391;-59
2023/01/24 09:31:21;;;;;;;292.42;276.88;;;4.60;99.90;;;;;;5018304;28;20529;-60
2023/01/24 09:33:47;;;;;;;290.92;275.63;;;4.60;99.90;;;;;;5017135;28;20503;-59
2023/01/24 09:36:13;;;;;;;291.43;276.07;;;4.60;99.90;;;;;;5016253;28;20929;-59
2023/01/24 09:38:38;;;;;;;300.80;284.70;;;4.70;99.90;;;;;;5017675;28;20583;-59
2023/01/24 09:41:29;;;;;;;285.07;269.80;;;4.80;99.90;;;;;;5019279;28;20403;-60
2023/01/24 09:44:07;;;;;;;295.38;279.98;;;4.80;99.90;;;;;;5021767;28;21009;-60
2023/01/24 09:46:45;;;;;;;294.92;279.05;;;4.90;99.90;;;;;;5020966;28;20415;-60
2023/01/24 09:49:26;;;;;;;299.90;283.63;;;4.70;99.90;;;;;;5020777;28;20391;-60
2023/01/24 09:51:53;;;;;;;305.48;288.90;;;4.70;99.90;;;;;;5019133;28;20866;-60
2023/01/24 09:54:37;;;;;;;311.95;295.02;;;4.80;99.90;;;;;;5019517;28;20763;-60
2023/01/24 09:57:15;;;;;;;304.40;288.08;;;4.80;99.90;;;;;;5022865;28;20379;-58
2023/01/24 09:59:45;;;;;;;311.47;294.70;;;4.80;99.90;;;;;;5022101;28;20403;-59
2023/01/24 10:02:17;;;;;;;303.10;286.83;;;4.80;99.90;;;;;;5021647;28;21002;-59
2023/01/24 10:04:44;;;;;;;288.98;273.42;;;4.80;99.90;;;;;;5022446;28;20668;-59
2023/01/24 10:07:31;;;;;;;318.27;300.83;;;4.90;99.90;;;;;;5024492;28;20383;-60
2023/01/24 10:10:19;;;;;;;318.73;301.57;;;4.90;99.90;;;;;;5024286;28;20410;-60
2023/01/24 10:13:01;;;;;;;295.85;279.75;;;4.90;99.90;;;;;;5024415;28;20881;-60
2023/01/24 10:15:41;;;;;;;303.58;286.85;;;4.80;99.90;;;;;;5026651;28;20389;-60
2023/01/24 10:18:15;;;;;;;308.80;292.00;;;4.80;99.90;;;;;;5027244;28;20426;-60
2023/01/24 10:21:14;;;;;;;299.40;283.45;;;4.80;99.90;;;;;;5027050;28;20403;-60
2023/01/24 10:23:47;;;;;;;282.85;267.67;;;4.80;99.90;;;;;;5019503;28;20391;-59
2023/01/24 10:26:42;;;;;;;311.27;294.67;;;4.70;99.90;;;;;;5035511;28;20389;-57
2023/01/24 10:29:16;;;;;;;296.15;280.35;;;4.70;99.90;;;;;;5030796;28;20441;-56
2023/01/24 10:32:04;;;;;;;302.15;286.05;;;4.70;99.90;;;;;;5029485;28;20387;-60
2023/01/24 10:34:44;;;;;;;317.30;300.35;;;4.80;99.90;;;;;;5026683;28;20895;-60
2023/01/24 10:37:09;;;;;;;309.83;293.52;;;4.80;99.90;;;;;;5027249;28;20399;-59
2023/01/24 10:39:36;;;;;;;304.10;288.02;;;4.90;99.90;;;;;;5026672;28;20387;-60
2023/01/24 10:42:03;;;;;;;296.60;281.05;;;4.90;99.90;;;;;;5027393;28;20484;-60
2023/01/24 10:44:36;;;;;;;299.05;283.08;;;4.90;99.90;;;;;;5024675;28;20414;-60
2023/01/24 10:47:21;;;;;;;306.33;289.98;;;4.90;99.90;;;;;;5025103;28;21049;-60
2023/01/24 10:50:15;;;;;;;301.92;284.63;;;4.90;99.90;;;;;;5025561;28;20387;-59
2023/01/24 10:52:41;;;;;;;303.23;286.58;;;4.90;99.90;;;;;;5023039;28;21066;-60
2023/01/24 10:55:24;;;;;;;291.58;275.83;;;4.80;99.90;;;;;;5025687;28;20489;-59
2023/01/24 10:57:52;;;;;;;303.48;287.13;;;4.80;99.90;;;;;;5031054;28;20383;-59
2023/01/24 11:00:22;;;;;;;275.85;260.95;;;4.80;99.90;;;;;;5032803;28;20494;-60
2023/01/24 11:02:54;;;;;;;303.67;287.55;;;4.60;99.90;;;;;;5029829;28;20383;-58
2023/01/24 11:05:22;;;;;;;288.83;273.27;;;4.70;99.90;;;;;;5029934;28;20387;-60
2023/01/24 11:07:54;;;;;;;293.57;278.07;;;4.70;99.90;;;;;;5029709;28;20476;-60
2023/01/24 11:10:23;;;;;;;289.87;274.57;;;4.80;99.90;;;;;;5029242;28;20727;-58
2023/01/24 11:13:00;;;;;;;269.90;255.52;;;4.80;99.90;;;;;;5029881;28;20782;-60
2023/01/24 11:15:29;;;;;;;284.27;269.27;;;4.70;99.90;;;;;;5028273;28;21009;-60
2023/01/24 11:17:57;;;;;;;296.52;280.55;;;4.80;99.90;;;;;;5029171;28;20394;-60
2023/01/24 11:20:32;;;;;;;294.73;279.08;;;4.90;99.90;;;;;;5030026;28;20775;-60
2023/01/24 11:23:02;;;;;;;295.08;278.98;;;4.90;99.90;;;;;;5028961;28;20379;-60
2023/01/24 11:25:28;;;;;;;282.70;267.47;;;4.90;99.90;;;;;;5029618;28;20440;-60
2023/01/24 11:27:53;;;;;;;303.37;287.20;;;4.90;99.90;;;;;;5031127;28;20478;-60
2023/01/24 11:30:21;;;;;;;290.38;274.77;;;4.90;99.90;;;;;;5030880;28;20501;-60
2023/01/24 11:33:01;;;;;;;300.63;284.48;;;4.90;99.90;;;;;;5032082;28;20398;-60
2023/01/24 11:35:34;;;;;;;289.92;274.55;;;4.90;99.90;;;;;;5031051;28;20383;-60
2023/01/24 11:38:17;;;;;;;289.83;274.37;;;4.90;99.90;;;;;;5031252;28;20397;-60
2023/01/24 11:41:25;;;;;;;283.55;268.35;;;4.90;99.90;;;;;;5029303;28;20506;-60
2023/01/24 11:44:08;;;;;;;312.60;295.75;;;4.90;99.90;;;;;;5058956;28;20422;-61
2023/01/24 11:47:07;;;;;;;303.95;287.67;;;4.70;99.90;;;;;;5024360;28;20426;-60
2023/01/24 11:50:07;;;;;;;296.95;280.90;;;4.80;99.90;;;;;;5042714;28;20386;-60
2023/01/24 11:53:04;;;;;;;314.75;297.20;;;4.80;99.90;;;;;;5020394;28;20383;-60
2023/01/24 11:56:08;;;;;;;299.60;283.38;;;4.70;99.90;;;;;;5021719;28;20543;-59
2023/01/24 11:58:41;;;;;;;300.38;284.13;;;4.90;99.90;;;;;;5019587;28;20385;-60
2023/01/24 12:01:24;;;;;;;311.10;294.63;;;4.80;99.90;;;;;;5020241;28;20404;-59
2023/01/24 12:04:21;;;;;;;305.67;289.05;;;4.80;99.90;;;;;;5021630;28;20869;-61
2023/01/24 12:07:01;;;;;;;303.25;286.75;;;4.90;99.90;;;;;;5022967;28;20398;-61
2023/01/24 12:09:37;;;;;;;295.45;279.38;;;4.80;99.90;;;;;;5023199;28;20383;-60
2023/01/24 12:12:11;;;;;;;306.87;290.30;;;4.90;99.90;;;;;;5020946;28;20387;-61
2023/01/24 12:14:52;;;;;;;313.02;296.33;;;4.80;99.90;;;;;;5017613;28;20402;-60
2023/01/24 12:17:33;;;;;;;304.60;288.23;;;4.70;99.90;;;;;;5020451;28;20552;-60
2023/01/24 12:20:25;;;;;;;307.92;291.45;;;4.70;99.90;;;;;;5022018;28;20413;-60
2023/01/24 12:22:53;;;;;;;299.67;283.52;;;4.80;99.90;;;;;;5021701;28;20394;-60
2023/01/24 12:25:30;;;;;;;317.00;299.80;;;4.80;99.90;;;;;;5021113;28;20436;-58
2023/01/24 12:27:59;;;;;;;312.15;295.67;;;4.80;99.90;;;;;;5019200;28;20384;-60
2023/01/24 12:30:40;;;;;;;312.92;295.85;;;4.80;99.90;;;;;;5014814;28;20464;-60
2023/01/24 12:33:22;;;;;;;309.92;293.27;;;4.80;99.90;;;;;;5015691;28;20387;-60
2023/01/24 12:35:55;;;;;;;309.08;292.80;;;4.80;99.90;;;;;;5016980;28;20445;-59
2023/01/24 12:38:24;;;;;;;326.23;308.60;;;4.80;99.90;;;;;;5020968;28;20371;-60
2023/01/24 12:41:07;;;;;;;310.48;294.15;;;4.80;99.90;;;;;;5019623;28;20426;-60
2023/01/24 12:44:03;;;;;;;318.83;302.20;;;4.80;99.90;;;;;;5015382;28;20455;-60
2023/01/24 12:46:49;;;;;;;333.48;316.02;;;4.80;99.90;;;;;;5038763;28;20428;-60
2023/01/24 12:49:46;;;;;;;317.35;300.58;;;4.80;99.90;;;;;;5013167;28;20424;-60
2023/01/24 12:52:40;;;;;;;298.60;282.93;;;4.80;99.90;;;;;;5014585;28;20514;-59
2023/01/24 12:55:37;;;;;;;309.15;292.85;;;4.80;99.90;;;;;;5013303;28;20477;-59
2023/01/24 12:58:30;;;;;;;330.00;312.88;;;4.80;99.90;;;;;;4994176;28;20626;-59
2023/01/24 13:01:29;;;;;;;313.83;297.35;;;4.90;99.90;;;;;;5005920;28;20510;-57
2023/01/24 13:04:19;;;;;;;316.67;299.85;;;4.80;99.90;;;;;;5007047;28;20595;-60
2023/01/24 13:07:19;;;;;;;324.95;307.77;;;4.80;99.90;;;;;;5005419;28;20614;-60
2023/01/24 13:09:56;;;;;;;317.23;300.25;;;4.80;99.90;;;;;;5002620;28;20674;-58